Time,TemperatureF,DewpointF,PressureIn,WindDirection,WindDirectionDegrees,WindSpeedMPH,WindSpeedGustMPH,Humidity,HourlyPrecipIn,Conditions,Clouds,dailyrainin,SoftwareType,DateUTC
2013-07-06 00:01:00,76.7,71.8,29.59,WSW,256,3.5,3.5,85,0.00,RA,,0.00,WeatherDisplay:10.37,2013-07-06 04:01:00,
2013-07-06 00:06:00,76.5,71.7,29.58,SW,236,3.5,0.0,85,0.00,RA,,0.00,WeatherDisplay:10.37,2013-07-06 04:06:00,
2013-07-06 00:11:00,76.5,72.0,29.58,WSW,240,1.1,0.0,86,0.00,CLR,,0.00,WeatherDisplay:10.37,2013-07-06 04:11:00,
2013-07-06 00:16:00,76.5,72.0,29.58,SSW,213,0.0,0.0,86,0.00,CLR,,0.00,WeatherDisplay:10.37,2013-07-06 04:16:00,
2013-07-06 00:21:00,76.3,71.8,29.58,SW,234,0.0,0.0,86,0.00,CLR,,0.00,WeatherDisplay:10.37,2013-07-06 04:21:00,
2013-07-06 00:26:00,76.3,71.8,29.58,WSW,237,0.0,0.0,86,0.00,CLR,,0.00,WeatherDisplay:10.37,2013-07-06 04:26:00,
2013-07-06 00:31:00,76.3,71.8,29.58,WSW,244,0.0,0.0,86,0.00,CLR,,0.00,WeatherDisplay:10.37,2013-07-06 04:31:00,
2013-07-06 00:36:00,76.1,71.6,29.58,SW,224,8.1,8.1,86,0.00,CLR,,0.00,WeatherDisplay:10.37,2013-07-06 04:36:00,
2013-07-06 00:41:00,76.1,71.9,29.58,SW,227,0.0,0.0,87,0.00,CLR,,0.00,WeatherDisplay:10.37,2013-07-06 04:41:00,
2013-07-06 00:46:00,76.0,71.8,29.58,SW,224,4.6,4.6,87,0.00,CLR,,0.00,WeatherDisplay:10.37,2013-07-06 04:46:00,
2013-07-06 00:51:00,76.0,71.8,29.58,SW,234,2.3,2.3,87,0.00,CLR,,0.00,WeatherDisplay:10.37,2013-07-06 04:51:00,
2013-07-06 00:56:00,76.0,71.8,29.58,WSW,240,0.0,0.0,87,0.00,CLR,,0.00,WeatherDisplay:10.37,2013-07-06 04:56:00,
2013-07-06 01:01:00,75.8,72.0,29.58,SW,232,0.0,0.0,88,0.00,CLR,,0.00,WeatherDisplay:10.37,2013-07-06 05:01:00,
2013-07-06 01:06:00,75.8,72.0,29.58,WSW,247,5.8,5.8,88,0.00,CLR,,0.00,WeatherDisplay:10.37,2013-07-06 05:06:00,
2013-07-06 01:11:00,75.8,72.0,29.58,SW,232,2.3,2.3,88,0.00,CLR,,0.00,WeatherDisplay:10.37,2013-07-06 05:11:00,
2013-07-06 01:16:00,75.6,71.8,29.58,SW,232,1.1,0.0,88,0.00,CLR,,0.00,WeatherDisplay:10.37,2013-07-06 05:16:00,
2013-07-06 01:21:00,75.6,72.1,29.57,West,264,6.9,6.9,89,0.00,CLR,,0.00,WeatherDisplay:10.37,2013-07-06 05:21:00,
2013-07-06 01:26:00,75.4,71.9,29.57,WSW,250,0.0,0.0,89,0.00,CLR,,0.00,WeatherDisplay:10.37,2013-07-06 05:26:00,
2013-07-06 01:31:00,75.4,71.9,29.57,WSW,250,0.0,0.0,89,0.00,CLR,,0.00,WeatherDisplay:10.37,2013-07-06 05:31:00,
2013-07-06 01:36:00,75.3,71.8,29.57,WSW,239,0.0,0.0,89,0.00,CLR,,0.00,WeatherDisplay:10.37,2013-07-06 05:36:00,
2013-07-06 01:41:00,75.3,72.2,29.57,WSW,237,3.5,3.5,90,0.00,CLR,,0.00,WeatherDisplay:10.37,2013-07-06 05:41:00,
2013-07-06 01:46:00,75.1,72.0,29.57,SW,223,1.1,1.1,90,0.00,CLR,,0.00,WeatherDisplay:10.37,2013-07-06 05:46:00,
2013-07-06 01:51:00,75.1,72.0,29.57,SW,233,4.6,4.6,90,0.00,CLR,,0.00,WeatherDisplay:10.37,2013-07-06 05:51:00,
2013-07-06 01:56:00,74.9,71.8,29.57,WSW,251,0.0,0.0,90,0.00,CLR,,0.00,WeatherDisplay:10.37,2013-07-06 05:56:00,
2013-07-06 02:01:00,74.9,72.1,29.57,SW,222,1.1,1.1,91,0.00,CLR,,0.00,WeatherDisplay:10.37,2013-07-06 06:01:00,
2013-07-06 02:06:00,74.7,71.9,29.57,SW,224,4.6,4.6,91,0.00,CLR,,0.00,WeatherDisplay:10.37,2013-07-06 06:06:00,
2013-07-06 02:11:00,74.7,71.9,29.57,SW,226,1.1,1.1,91,0.00,CLR,,0.00,WeatherDisplay:10.37,2013-07-06 06:11:00,
2013-07-06 02:16:00,74.6,72.1,29.57,SW,226,0.0,0.0,92,0.00,CLR,,0.00,WeatherDisplay:10.37,2013-07-06 06:16:00,
2013-07-06 02:21:00,74.6,72.1,29.56,SW,226,0.0,0.0,92,0.00,CLR,,0.00,WeatherDisplay:10.37,2013-07-06 06:21:00,
2013-07-06 02:26:00,74.4,71.9,29.56,SW,226,0.0,0.0,92,0.00,CLR,,0.00,WeatherDisplay:10.37,2013-07-06 06:26:00,
2013-07-06 02:31:00,74.4,71.9,29.56,SW,226,0.0,0.0,92,0.00,CLR,,0.00,WeatherDisplay:10.37,2013-07-06 06:31:00,
2013-07-06 02:36:00,74.4,71.9,29.56,West,263,0.0,0.0,92,0.00,CLR,,0.00,WeatherDisplay:10.37,2013-07-06 06:36:00,
2013-07-06 02:41:00,74.2,71.7,29.56,West,263,0.0,0.0,92,0.00,CLR,,0.00,WeatherDisplay:10.37,2013-07-06 06:41:00,
2013-07-06 02:46:00,74.2,72.0,29.56,West,263,0.0,0.0,93,0.00,CLR,,0.00,WeatherDisplay:10.37,2013-07-06 06:46:00,
2013-07-06 02:51:00,74.0,71.8,29.56,SSW,198,0.0,0.0,93,0.00,CLR,,0.00,WeatherDisplay:10.37,2013-07-06 06:51:00,
2013-07-06 02:56:00,74.0,71.8,29.56,SSW,198,1.1,1.1,93,0.00,CLR,,0.00,WeatherDisplay:10.37,2013-07-06 06:56:00,
2013-07-06 03:01:00,74.0,71.8,29.56,SSW,198,0.0,0.0,93,0.00,CLR,,0.00,WeatherDisplay:10.37,2013-07-06 07:01:00,
2013-07-06 03:06:00,73.9,72.1,29.56,SSW,202,0.0,0.0,94,0.00,CLR,,0.00,WeatherDisplay:10.37,2013-07-06 07:06:00,
2013-07-06 03:11:00,73.9,72.1,29.56,SSW,208,0.0,0.0,94,0.00,CLR,,0.00,WeatherDisplay:10.37,2013-07-06 07:11:00,
2013-07-06 03:16:00,73.9,72.1,29.56,SW,233,0.0,0.0,94,0.00,CLR,,0.00,WeatherDisplay:10.37,2013-07-06 07:16:00,
2013-07-06 03:21:00,73.7,71.9,29.56,SW,233,0.0,0.0,94,0.00,CLR,,0.00,WeatherDisplay:10.37,2013-07-06 07:21:00,
2013-07-06 03:26:00,73.7,71.9,29.56,SW,233,0.0,0.0,94,0.00,CLR,,0.00,WeatherDisplay:10.37,2013-07-06 07:26:00,
2013-07-06 03:31:00,73.5,71.7,29.56,SW,233,0.0,0.0,94,0.00,CLR,,0.00,WeatherDisplay:10.37,2013-07-06 07:31:00,
2013-07-06 03:36:00,73.5,72.0,29.56,SW,229,0.0,0.0,95,0.00,CLR,,0.00,WeatherDisplay:10.37,2013-07-06 07:36:00,
2013-07-06 03:41:00,73.5,72.0,29.56,SW,229,0.0,0.0,95,0.00,CLR,,0.00,WeatherDisplay:10.37,2013-07-06 07:41:00,
2013-07-06 03:46:00,73.5,72.0,29.56,SW,220,0.0,0.0,95,0.00,CLR,,0.00,WeatherDisplay:10.37,2013-07-06 07:46:00,
2013-07-06 03:51:00,73.5,72.0,29.56,SW,220,0.0,0.0,95,0.00,CLR,,0.00,WeatherDisplay:10.37,2013-07-06 07:51:00,
2013-07-06 03:56:00,73.5,72.3,29.56,SW,220,0.0,0.0,96,0.00,CLR,,0.00,WeatherDisplay:10.37,2013-07-06 07:56:00,
2013-07-06 04:01:00,73.5,72.3,29.56,WSW,243,3.5,3.5,96,0.00,CLR,,0.00,WeatherDisplay:10.37,2013-07-06 08:01:00,
2013-07-06 04:06:00,73.7,72.5,29.56,SW,236,2.3,2.3,96,0.00,CLR,,0.00,WeatherDisplay:10.37,2013-07-06 08:06:00,
2013-07-06 04:11:00,73.7,72.5,29.56,SW,236,0.0,0.0,96,0.00,CLR,,0.00,WeatherDisplay:10.37,2013-07-06 08:11:00,
2013-07-06 04:16:00,73.7,72.5,29.56,SW,236,0.0,0.9,96,0.00,CLR,,0.00,WeatherDisplay:10.37,2013-07-06 08:16:00,
2013-07-06 04:21:00,73.7,72.5,29.57,SW,230,3.5,3.5,96,0.00,CLR,,0.00,WeatherDisplay:10.37,2013-07-06 08:21:00,
2013-07-06 04:26:00,73.7,72.5,29.57,SW,230,0.0,0.0,96,0.00,CLR,,0.00,WeatherDisplay:10.37,2013-07-06 08:26:00,
2013-07-06 04:31:00,73.7,72.5,29.57,SW,229,3.5,3.5,96,0.00,CLR,,0.00,WeatherDisplay:10.37,2013-07-06 08:31:00,
2013-07-06 04:36:00,73.7,72.5,29.57,WSW,241,0.0,0.5,96,0.00,CLR,,0.00,WeatherDisplay:10.37,2013-07-06 08:36:00,
2013-07-06 04:41:00,73.7,72.5,29.57,WSW,241,0.0,0.0,96,0.00,CLR,,0.00,WeatherDisplay:10.37,2013-07-06 08:41:00,
2013-07-06 04:46:00,73.7,72.5,29.57,WSW,241,0.0,0.0,96,0.00,CLR,,0.00,WeatherDisplay:10.37,2013-07-06 08:46:00,
2013-07-06 04:51:00,73.7,72.5,29.57,SW,234,2.3,2.3,96,0.00,CLR,,0.00,WeatherDisplay:10.37,2013-07-06 08:51:00,
2013-07-06 04:56:00,73.7,72.5,29.57,SW,234,0.0,0.0,96,0.00,CLR,,0.00,WeatherDisplay:10.37,2013-07-06 08:56:00,
2013-07-06 05:01:00,73.7,72.5,29.57,SW,234,0.0,0.0,96,0.00,CLR,,0.00,WeatherDisplay:10.37,2013-07-06 09:01:00,
2013-07-06 05:06:00,73.7,72.5,29.57,SW,234,0.0,0.0,96,0.00,CLR,,0.00,WeatherDisplay:10.37,2013-07-06 09:06:00,
2013-07-06 05:11:00,73.7,72.5,29.57,WSW,244,0.0,0.0,96,0.00,CLR,,0.00,WeatherDisplay:10.37,2013-07-06 09:11:00,
2013-07-06 05:16:00,73.7,72.5,29.57,WSW,239,1.0,1.0,96,0.00,CLR,,0.00,WeatherDisplay:10.37,2013-07-06 09:16:00,
2013-07-06 05:21:00,73.7,72.5,29.57,SW,217,0.0,0.0,96,0.00,CLR,,0.00,WeatherDisplay:10.37,2013-07-06 09:21:00,
2013-07-06 05:26:00,73.5,72.3,29.57,SW,217,0.0,0.0,96,0.00,CLR,,0.00,WeatherDisplay:10.37,2013-07-06 09:26:00,
2013-07-06 05:31:00,73.5,72.3,29.57,SW,217,0.0,0.0,96,0.00,CLR,,0.00,WeatherDisplay:10.37,2013-07-06 09:31:00,
2013-07-06 05:37:00,73.3,72.1,29.57,SW,217,0.0,0.0,96,0.00,CLR,,0.00,WeatherDisplay:10.37,2013-07-06 09:37:00,
2013-07-06 05:42:00,73.2,72.0,29.57,SW,217,0.0,0.0,96,0.00,CLR,,0.00,WeatherDisplay:10.37,2013-07-06 09:42:00,
2013-07-06 05:47:00,73.2,72.0,29.57,SW,217,0.0,0.0,96,0.00,CLR,,0.00,WeatherDisplay:10.37,2013-07-06 09:47:00,
2013-07-06 05:52:00,73.2,72.0,29.58,ESE,114,0.0,0.0,96,0.00,CLR,,0.00,WeatherDisplay:10.37,2013-07-06 09:52:00,
2013-07-06 05:57:00,73.0,71.8,29.58,ESE,114,0.0,0.0,96,0.00,CLR,,0.00,WeatherDisplay:10.37,2013-07-06 09:57:00,
2013-07-06 06:02:00,72.8,71.6,29.58,ESE,114,0.0,0.0,96,0.00,CLR,,0.00,WeatherDisplay:10.37,2013-07-06 10:02:00,
2013-07-06 06:07:00,72.8,71.6,29.58,ESE,114,0.0,0.0,96,0.00,CLR,,0.00,WeatherDisplay:10.37,2013-07-06 10:07:00,
2013-07-06 06:12:00,72.7,71.5,29.58,ESE,114,0.0,0.0,96,0.00,CLR,,0.00,WeatherDisplay:10.37,2013-07-06 10:12:00,
2013-07-06 06:17:00,72.7,71.5,29.58,ESE,116,0.0,0.0,96,0.00,CLR,,0.00,WeatherDisplay:10.37,2013-07-06 10:17:00,
2013-07-06 06:22:00,72.8,71.9,29.58,ESE,116,0.0,0.0,97,0.00,CLR,,0.00,WeatherDisplay:10.37,2013-07-06 10:22:00,
2013-07-06 06:27:00,72.8,71.9,29.58,ESE,116,0.0,0.0,97,0.00,CLR,,0.00,WeatherDisplay:10.37,2013-07-06 10:27:00,
2013-07-06 06:32:00,73.0,72.1,29.58,ESE,116,0.0,0.0,97,0.00,CLR,,0.00,WeatherDisplay:10.37,2013-07-06 10:32:00,
2013-07-06 06:37:00,73.0,72.1,29.59,ESE,121,0.0,0.0,97,0.00,CLR,,0.00,WeatherDisplay:10.37,2013-07-06 10:37:00,
2013-07-06 06:42:00,73.0,72.1,29.59,ESE,121,0.0,0.0,97,0.00,CLR,,0.00,WeatherDisplay:10.37,2013-07-06 10:42:00,
2013-07-06 06:47:00,73.0,72.1,29.59,ESE,121,0.0,0.0,97,0.00,CLR,,0.00,WeatherDisplay:10.37,2013-07-06 10:47:00,
2013-07-06 06:52:00,73.2,72.3,29.60,ESE,121,0.0,0.0,97,0.00,CLR,,0.00,WeatherDisplay:10.37,2013-07-06 10:52:00,
2013-07-06 06:57:00,73.2,72.3,29.60,SE,128,0.0,0.0,97,0.00,CLR,,0.00,WeatherDisplay:10.37,2013-07-06 10:57:00,
2013-07-06 07:02:00,73.2,72.3,29.60,SSE,152,2.3,0.0,97,0.00,CLR,,0.00,WeatherDisplay:10.37,2013-07-06 11:02:00,
2013-07-06 07:07:00,73.3,72.4,29.60,SSE,155,0.0,0.0,97,0.00,CLR,,0.00,WeatherDisplay:10.37,2013-07-06 11:07:00,
2013-07-06 07:12:00,73.3,72.4,29.60,SSE,164,0.0,0.0,97,0.00,CLR,,0.00,WeatherDisplay:10.37,2013-07-06 11:12:00,
2013-07-06 07:17:00,73.5,72.6,29.60,SSE,164,0.0,0.0,97,0.00,CLR,,0.00,WeatherDisplay:10.37,2013-07-06 11:17:00,
2013-07-06 07:22:00,73.5,72.6,29.60,SSW,213,2.3,0.0,97,0.00,CLR,,0.00,WeatherDisplay:10.37,2013-07-06 11:22:00,
2013-07-06 07:27:00,73.7,72.8,29.60,SW,223,0.0,0.0,97,0.00,CLR,,0.00,WeatherDisplay:10.37,2013-07-06 11:27:00,
2013-07-06 07:32:00,73.7,72.8,29.60,SSW,203,2.3,0.0,97,0.00,CLR,,0.00,WeatherDisplay:10.37,2013-07-06 11:32:00,
2013-07-06 07:37:00,73.7,72.8,29.60,SSW,210,2.0,2.0,97,0.00,CLR,,0.00,WeatherDisplay:10.37,2013-07-06 11:37:00,
2013-07-06 07:42:00,73.7,72.5,29.60,SW,215,1.1,1.6,96,0.00,CLR,,0.00,WeatherDisplay:10.37,2013-07-06 11:42:00,
2013-07-06 07:47:00,73.7,72.5,29.60,SW,234,4.6,4.6,96,0.00,CLR,,0.00,WeatherDisplay:10.37,2013-07-06 11:47:00,
2013-07-06 07:52:00,73.5,71.7,29.60,WSW,241,4.6,4.6,94,0.00,CLR,,0.00,WeatherDisplay:10.37,2013-07-06 11:52:00,
2013-07-06 07:57:00,73.7,71.2,29.60,WSW,251,2.3,2.3,92,0.00,CLR,,0.00,WeatherDisplay:10.37,2013-07-06 11:57:00,
2013-07-06 08:02:00,73.9,70.8,29.60,WSW,244,4.6,4.6,90,0.00,CLR,,0.00,WeatherDisplay:10.37,2013-07-06 12:02:00,
2013-07-06 08:07:00,74.0,70.6,29.61,WSW,251,0.0,0.3,89,0.00,CLR,,0.00,WeatherDisplay:10.37,2013-07-06 12:07:00,
2013-07-06 08:12:00,74.2,70.4,29.61,WSW,237,4.6,4.6,88,0.00,CLR,,0.00,WeatherDisplay:10.37,2013-07-06 12:12:00,
2013-07-06 08:17:00,74.6,70.5,29.61,SW,220,0.0,0.1,87,0.00,CLR,,0.00,WeatherDisplay:10.37,2013-07-06 12:17:00,
2013-07-06 08:22:00,74.7,70.6,29.60,WSW,250,0.0,0.5,87,0.00,CLR,,0.00,WeatherDisplay:10.37,2013-07-06 12:22:00,
2013-07-06 08:27:00,75.1,71.0,29.60,WSW,241,5.8,5.8,87,0.00,CLR,,0.00,WeatherDisplay:10.37,2013-07-06 12:27:00,
2013-07-06 08:32:00,75.3,70.8,29.60,WSW,244,5.8,5.8,86,0.00,CLR,,0.00,WeatherDisplay:10.37,2013-07-06 12:32:00,
2013-07-06 08:37:00,75.6,70.8,29.61,SW,219,4.6,4.6,85,0.00,CLR,,0.00,WeatherDisplay:10.37,2013-07-06 12:37:00,
2013-07-06 08:42:00,75.6,70.4,29.61,SSW,212,5.8,5.8,84,0.00,CLR,,0.00,WeatherDisplay:10.37,2013-07-06 12:42:00,
2013-07-06 08:47:00,75.6,70.4,29.61,WSW,257,0.0,0.1,84,0.00,CLR,,0.00,WeatherDisplay:10.37,2013-07-06 12:47:00,
2013-07-06 08:52:00,75.8,71.0,29.61,WSW,253,2.3,0.0,85,0.00,CLR,,0.00,WeatherDisplay:10.37,2013-07-06 12:52:00,
2013-07-06 08:57:00,76.1,70.9,29.61,SW,236,1.1,1.2,84,0.00,CLR,,0.00,WeatherDisplay:10.37,2013-07-06 12:57:00,
2013-07-06 09:02:00,76.5,70.9,29.61,SW,224,3.5,0.0,83,0.00,CLR,,0.00,WeatherDisplay:10.37,2013-07-06 13:02:00,
2013-07-06 09:07:00,76.8,70.5,29.61,WSW,254,4.6,4.6,81,0.00,CLR,,0.00,WeatherDisplay:10.37,2013-07-06 13:07:00,
2013-07-06 09:12:00,77.2,70.9,29.61,WSW,243,2.3,2.3,81,0.00,CLR,,0.00,WeatherDisplay:10.37,2013-07-06 13:12:00,
2013-07-06 09:17:00,77.4,70.4,29.61,WSW,243,8.1,8.1,79,0.00,CLR,,0.00,WeatherDisplay:10.37,2013-07-06 13:17:00,
2013-07-06 09:22:00,77.6,70.6,29.61,WSW,257,0.0,0.0,79,0.00,CLR,,0.00,WeatherDisplay:10.37,2013-07-06 13:22:00,
2013-07-06 09:27:00,77.7,70.7,29.61,WSW,239,0.0,0.0,79,0.00,CLR,,0.00,WeatherDisplay:10.37,2013-07-06 13:27:00,
2013-07-06 09:32:00,77.9,70.1,29.61,SW,236,4.6,4.6,77,0.00,CLR,,0.00,WeatherDisplay:10.37,2013-07-06 13:32:00,
2013-07-06 09:37:00,77.9,70.9,29.61,WSW,257,4.6,0.0,79,0.00,CLR,,0.00,WeatherDisplay:10.37,2013-07-06 13:37:00,
2013-07-06 09:42:00,77.7,70.3,29.61,West,261,2.3,2.3,78,0.00,CLR,,0.00,WeatherDisplay:10.37,2013-07-06 13:42:00,
2013-07-06 09:47:00,77.7,70.7,29.61,West,261,0.0,0.0,79,0.00,CLR,,0.00,WeatherDisplay:10.37,2013-07-06 13:47:00,
2013-07-06 09:52:00,78.1,70.7,29.60,West,261,3.5,3.5,78,0.00,CLR,,0.00,WeatherDisplay:10.37,2013-07-06 13:52:00,
2013-07-06 09:57:00,78.5,70.7,29.60,West,261,1.1,1.1,77,0.00,CLR,,0.00,WeatherDisplay:10.37,2013-07-06 13:57:00,
2013-07-06 10:02:00,78.8,70.6,29.60,SW,233,0.0,1.2,76,0.00,CLR,,0.01,WeatherDisplay:10.37,2013-07-06 14:02:00,
2013-07-06 10:07:00,79.2,71.7,29.60,SW,220,0.0,0.0,78,0.01,RA,,0.01,WeatherDisplay:10.37,2013-07-06 14:07:00,
2013-07-06 10:12:00,79.6,71.4,29.60,West,272,0.0,2.9,76,0.01,RA,,0.01,WeatherDisplay:10.37,2013-07-06 14:12:00,
2013-07-06 10:17:00,79.9,70.5,29.60,WSW,251,3.5,3.5,73,0.01,CLR,,0.01,WeatherDisplay:10.37,2013-07-06 14:17:00,
2013-07-06 10:22:00,80.3,70.0,29.60,WSW,251,0.0,0.0,71,0.01,CLR,,0.01,WeatherDisplay:10.37,2013-07-06 14:22:00,
2013-07-06 10:27:00,81.1,70.8,29.60,WSW,250,5.8,5.8,71,0.01,CLR,,0.01,WeatherDisplay:10.37,2013-07-06 14:27:00,
2013-07-06 10:32:00,80.9,70.2,29.60,WSW,246,1.1,2.0,70,0.01,CLR,,0.01,WeatherDisplay:10.37,2013-07-06 14:32:00,
2013-07-06 10:37:00,81.2,70.9,29.60,WSW,250,0.0,1.4,71,0.01,CLR,,0.01,WeatherDisplay:10.37,2013-07-06 14:37:00,
2013-07-06 10:42:00,81.6,70.0,29.60,West,277,0.0,0.0,68,0.01,CLR,,0.01,WeatherDisplay:10.37,2013-07-06 14:42:00,
2013-07-06 10:47:00,81.8,69.8,29.60,WSW,239,5.8,5.8,67,0.01,CLR,,0.01,WeatherDisplay:10.37,2013-07-06 14:47:00,
2013-07-06 10:52:00,81.4,70.2,29.60,WSW,254,8.1,8.1,69,0.01,CLR,,0.01,WeatherDisplay:10.37,2013-07-06 14:52:00,
2013-07-06 10:57:00,81.2,70.9,29.60,WSW,250,1.1,1.1,71,0.01,CLR,,0.01,WeatherDisplay:10.37,2013-07-06 14:57:00,
2013-07-06 11:02:00,81.4,70.7,29.60,WSW,254,0.0,1.5,70,0.01,CLR,,0.01,WeatherDisplay:10.37,2013-07-06 15:02:00,
2013-07-06 11:07:00,82.0,71.2,29.60,WSW,254,0.0,0.3,70,0.00,CLR,,0.01,WeatherDisplay:10.37,2013-07-06 15:07:00,
2013-07-06 11:12:00,81.6,70.4,29.60,WSW,256,5.8,0.0,69,0.00,CLR,,0.01,WeatherDisplay:10.37,2013-07-06 15:12:00,
2013-07-06 11:17:00,81.6,70.9,29.60,West,260,0.0,0.0,70,0.00,CLR,,0.01,WeatherDisplay:10.37,2013-07-06 15:17:00,
2013-07-06 11:22:00,81.6,70.9,29.60,West,260,0.0,0.1,70,0.00,CLR,,0.01,WeatherDisplay:10.37,2013-07-06 15:22:00,
2013-07-06 11:27:00,81.4,71.5,29.60,West,260,0.0,0.0,72,0.00,CLR,,0.01,WeatherDisplay:10.37,2013-07-06 15:27:00,
2013-07-06 11:32:00,81.4,70.7,29.60,West,260,0.0,0.0,70,0.00,CLR,,0.01,WeatherDisplay:10.37,2013-07-06 15:32:00,
2013-07-06 11:37:00,81.2,70.1,29.60,West,260,1.1,0.0,69,0.00,CLR,,0.01,WeatherDisplay:10.37,2013-07-06 15:37:00,
2013-07-06 11:42:00,81.8,70.6,29.60,West,260,0.0,0.0,69,0.00,CLR,,0.01,WeatherDisplay:10.37,2013-07-06 15:42:00,
2013-07-06 11:47:00,82.4,69.9,29.60,WSW,253,1.1,1.1,66,0.00,CLR,,0.01,WeatherDisplay:10.37,2013-07-06 15:47:00,
2013-07-06 11:52:00,82.4,69.9,29.60,WSW,250,2.3,0.0,66,0.00,CLR,,0.01,WeatherDisplay:10.37,2013-07-06 15:52:00,
2013-07-06 11:57:00,82.4,71.2,29.60,West,263,0.0,0.2,69,0.00,CLR,,0.01,WeatherDisplay:10.37,2013-07-06 15:57:00,
2013-07-06 12:03:00,81.8,70.6,29.60,WSW,254,2.3,2.3,69,0.00,CLR,,0.01,WeatherDisplay:10.37,2013-07-06 16:03:00,
2013-07-06 12:08:00,81.6,70.9,29.60,WSW,254,0.0,0.0,70,0.00,CLR,,0.01,WeatherDisplay:10.37,2013-07-06 16:08:00,
2013-07-06 12:14:00,82.0,70.8,29.60,WSW,254,3.5,0.0,69,0.00,CLR,,0.01,WeatherDisplay:10.37,2013-07-06 16:14:00,
2013-07-06 12:20:00,82.2,71.4,29.60,WSW,254,0.0,0.2,70,0.00,CLR,,0.01,WeatherDisplay:10.37,2013-07-06 16:20:00,
2013-07-06 12:25:00,82.6,71.0,29.59,NE,35,0.0,0.0,68,0.00,CLR,,0.01,WeatherDisplay:10.37,2013-07-06 16:25:00,
2013-07-06 12:31:00,83.2,71.5,29.59,NE,35,1.1,0.0,68,0.00,CLR,,0.01,WeatherDisplay:10.37,2013-07-06 16:31:00,
2013-07-06 12:38:00,84.1,71.1,29.59,WSW,253,0.0,0.0,65,0.00,CLR,,0.01,WeatherDisplay:10.37,2013-07-06 16:38:00,
2013-07-06 12:44:00,84.1,69.7,29.59,WSW,253,1.1,0.0,62,0.00,CLR,,0.01,WeatherDisplay:10.37,2013-07-06 16:44:00,
2013-07-06 12:49:00,84.3,70.8,29.59,WSW,253,0.0,0.0,64,0.00,CLR,,0.01,WeatherDisplay:10.37,2013-07-06 16:49:00,
2013-07-06 12:54:00,84.0,71.0,29.58,WSW,250,0.0,0.2,65,0.00,CLR,,0.01,WeatherDisplay:10.37,2013-07-06 16:54:00,
2013-07-06 13:00:00,83.0,71.3,29.58,WSW,250,3.5,3.5,68,0.00,CLR,,0.01,WeatherDisplay:10.37,2013-07-06 17:00:00,
2013-07-06 13:07:00,83.4,71.3,29.58,WSW,250,0.0,0.0,67,0.00,CLR,,0.01,WeatherDisplay:10.37,2013-07-06 17:07:00,
2013-07-06 13:12:00,83.6,71.0,29.58,WSW,250,0.0,0.0,66,0.00,CLR,,0.01,WeatherDisplay:10.37,2013-07-06 17:12:00,
2013-07-06 13:18:00,84.1,72.4,29.58,WSW,239,2.3,2.3,68,0.00,CLR,,0.01,WeatherDisplay:10.37,2013-07-06 17:18:00,
2013-07-06 13:24:00,84.3,71.2,29.58,NW,309,0.0,0.0,65,0.00,CLR,,0.01,WeatherDisplay:10.37,2013-07-06 17:24:00,
2013-07-06 13:30:00,84.5,71.4,29.58,SW,224,3.5,0.0,65,0.00,CLR,,0.01,WeatherDisplay:10.37,2013-07-06 17:30:00,
2013-07-06 13:35:00,84.7,70.2,29.58,WSW,248,1.1,1.1,62,0.00,CLR,,0.01,WeatherDisplay:10.37,2013-07-06 17:35:00,
2013-07-06 13:41:00,84.7,71.6,29.57,WSW,240,5.8,5.8,65,0.00,CLR,,0.01,WeatherDisplay:10.37,2013-07-06 17:41:00,
2013-07-06 13:46:00,84.7,71.2,29.57,SW,234,1.1,0.0,64,0.00,CLR,,0.01,WeatherDisplay:10.37,2013-07-06 17:46:00,
2013-07-06 13:51:00,84.3,71.7,29.56,SE,134,0.0,0.0,66,0.00,CLR,,0.01,WeatherDisplay:10.37,2013-07-06 17:51:00,
2013-07-06 13:57:00,84.1,72.0,29.56,East,93,0.0,0.0,67,0.00,CLR,,0.01,WeatherDisplay:10.37,2013-07-06 17:57:00,
2013-07-06 14:03:00,84.1,72.0,29.56,East,93,0.0,0.0,67,0.00,CLR,,0.01,WeatherDisplay:10.37,2013-07-06 18:03:00,
2013-07-06 14:08:00,84.3,71.7,29.56,East,93,0.0,0.0,66,0.00,CLR,,0.01,WeatherDisplay:10.37,2013-07-06 18:08:00,
2013-07-06 14:14:00,85.5,71.9,29.56,ESE,104,0.0,0.0,64,0.00,CLR,,0.01,WeatherDisplay:10.37,2013-07-06 18:14:00,
2013-07-06 14:20:00,85.9,72.8,29.56,West,264,0.0,0.0,65,0.00,CLR,,0.01,WeatherDisplay:10.37,2013-07-06 18:20:00,
2013-07-06 14:25:00,85.9,72.3,29.55,SW,219,0.0,0.0,64,0.00,CLR,,0.01,WeatherDisplay:10.37,2013-07-06 18:25:00,
2013-07-06 14:31:00,85.3,72.6,29.55,SW,232,1.1,0.0,66,0.00,CLR,,0.01,WeatherDisplay:10.37,2013-07-06 18:31:00,
2013-07-06 14:36:00,84.3,72.6,29.55,West,274,3.5,0.0,68,0.00,CLR,,0.01,WeatherDisplay:10.37,2013-07-06 18:36:00,
2013-07-06 14:42:00,84.3,72.1,29.55,SW,227,2.3,0.0,67,0.00,CLR,,0.01,WeatherDisplay:10.37,2013-07-06 18:42:00,
2013-07-06 14:48:00,84.9,70.9,29.55,West,265,4.6,4.6,63,0.00,CLR,,0.01,WeatherDisplay:10.37,2013-07-06 18:48:00,
2013-07-06 14:54:00,85.5,72.4,29.54,SSW,213,2.3,2.3,65,0.00,CLR,,0.01,WeatherDisplay:10.37,2013-07-06 18:54:00,
2013-07-06 14:59:00,85.5,71.5,29.54,WSW,247,0.0,0.0,63,0.00,CLR,,0.01,WeatherDisplay:10.37,2013-07-06 18:59:00,
2013-07-06 15:04:00,85.3,71.7,29.54,SSE,150,0.0,0.1,64,0.00,CLR,,0.01,WeatherDisplay:10.37,2013-07-06 19:04:00,
2013-07-06 15:10:00,85.3,71.7,29.53,SSE,150,0.0,0.0,64,0.00,CLR,,0.01,WeatherDisplay:10.37,2013-07-06 19:10:00,
2013-07-06 15:15:00,85.1,71.5,29.53,West,280,1.1,0.0,64,0.00,CLR,,0.01,WeatherDisplay:10.37,2013-07-06 19:15:00,
2013-07-06 15:20:00,85.1,72.5,29.53,West,280,0.0,0.0,66,0.00,CLR,,0.01,WeatherDisplay:10.37,2013-07-06 19:20:00,
2013-07-06 15:25:00,84.7,72.1,29.53,West,280,0.0,0.0,66,0.00,CLR,,0.01,WeatherDisplay:10.37,2013-07-06 19:25:00,
2013-07-06 15:31:00,84.9,72.7,29.53,West,280,0.0,0.0,67,0.00,CLR,,0.01,WeatherDisplay:10.37,2013-07-06 19:31:00,
2013-07-06 15:36:00,85.1,72.0,29.52,WSW,257,3.5,3.5,65,0.00,CLR,,0.01,WeatherDisplay:10.37,2013-07-06 19:36:00,
2013-07-06 15:41:00,85.7,71.7,29.52,West,261,5.8,5.8,63,0.00,CLR,,0.01,WeatherDisplay:10.37,2013-07-06 19:41:00,
2013-07-06 15:47:00,85.1,71.5,29.52,WSW,254,0.0,1.0,64,0.00,CLR,,0.01,WeatherDisplay:10.37,2013-07-06 19:47:00,
2013-07-06 15:52:00,84.5,72.8,29.52,WSW,254,0.0,0.0,68,0.00,CLR,,0.01,WeatherDisplay:10.37,2013-07-06 19:52:00,
2013-07-06 15:57:00,84.1,74.1,29.52,WSW,254,0.0,0.0,72,0.00,CLR,,0.01,WeatherDisplay:10.37,2013-07-06 19:57:00,
2013-07-06 16:02:00,83.8,73.0,29.52,WSW,241,5.8,5.8,70,0.00,CLR,,0.01,WeatherDisplay:10.37,2013-07-06 20:02:00,
2013-07-06 16:07:00,83.4,73.8,29.52,WSW,240,3.5,3.5,73,0.00,CLR,,0.01,WeatherDisplay:10.37,2013-07-06 20:07:00,
2013-07-06 16:13:00,82.8,72.8,29.52,West,265,3.5,0.0,72,0.00,CLR,,0.01,WeatherDisplay:10.37,2013-07-06 20:13:00,
2013-07-06 16:18:00,82.6,73.1,29.52,West,265,0.0,0.0,73,0.00,CLR,,0.01,WeatherDisplay:10.37,2013-07-06 20:18:00,
2013-07-06 16:25:00,82.6,73.5,29.52,West,265,0.0,0.0,74,0.00,CLR,,0.01,WeatherDisplay:10.37,2013-07-06 20:25:00,
2013-07-06 16:30:00,82.8,74.5,29.52,West,265,0.0,0.0,76,0.00,CLR,,0.01,WeatherDisplay:10.37,2013-07-06 20:30:00,
2013-07-06 16:35:00,83.0,73.4,29.52,West,265,0.0,0.0,73,0.00,CLR,,0.01,WeatherDisplay:10.37,2013-07-06 20:35:00,
2013-07-06 16:41:00,83.8,74.2,29.51,West,265,0.0,0.0,73,0.00,CLR,,0.01,WeatherDisplay:10.37,2013-07-06 20:41:00,
2013-07-06 16:46:00,84.0,74.4,29.51,West,265,0.0,0.0,73,0.00,CLR,,0.01,WeatherDisplay:10.37,2013-07-06 20:46:00,
2013-07-06 16:52:00,84.0,72.3,29.50,West,265,0.0,0.0,68,0.00,CLR,,0.01,WeatherDisplay:10.37,2013-07-06 20:52:00,
2013-07-06 16:57:00,84.1,71.1,29.50,West,265,0.0,0.0,65,0.00,CLR,,0.01,WeatherDisplay:10.37,2013-07-06 20:57:00,
2013-07-06 17:03:00,84.7,71.2,29.50,West,265,0.0,0.0,64,0.00,CLR,,0.01,WeatherDisplay:10.37,2013-07-06 21:03:00,
2013-07-06 17:08:00,85.5,71.9,29.50,West,265,0.0,0.0,64,0.00,CLR,,0.01,WeatherDisplay:10.37,2013-07-06 21:08:00,
2013-07-06 17:14:00,86.3,72.7,29.50,West,263,0.0,0.0,64,0.00,CLR,,0.01,WeatherDisplay:10.37,2013-07-06 21:14:00,
2013-07-06 17:19:00,86.7,72.1,29.50,West,263,0.0,0.0,62,0.00,CLR,,0.01,WeatherDisplay:10.37,2013-07-06 21:19:00,
2013-07-06 17:25:00,86.7,73.1,29.50,East,93,1.1,0.0,64,0.00,CLR,,0.01,WeatherDisplay:10.37,2013-07-06 21:25:00,
2013-07-06 17:31:00,86.5,72.9,29.50,East,93,0.0,0.0,64,0.00,CLR,,0.01,WeatherDisplay:10.37,2013-07-06 21:31:00,
2013-07-06 17:37:00,86.3,73.1,29.50,ENE,75,0.0,0.1,65,0.00,CLR,,0.01,WeatherDisplay:10.37,2013-07-06 21:37:00,
2013-07-06 17:43:00,86.5,72.9,29.50,ENE,75,0.0,0.0,64,0.00,CLR,,0.01,WeatherDisplay:10.37,2013-07-06 21:43:00,
2013-07-06 17:49:00,86.5,72.4,29.50,ENE,75,0.0,0.0,63,0.00,CLR,,0.01,WeatherDisplay:10.37,2013-07-06 21:49:00,
2013-07-06 17:55:00,86.1,72.5,29.49,SE,131,0.0,0.0,64,0.00,CLR,,0.01,WeatherDisplay:10.37,2013-07-06 21:55:00,
2013-07-06 18:00:00,86.1,72.5,29.49,SE,131,0.0,0.0,64,0.00,CLR,,0.01,WeatherDisplay:10.37,2013-07-06 22:00:00,
2013-07-06 18:05:00,86.3,72.7,29.49,WSW,243,3.5,3.5,64,0.00,CLR,,0.01,WeatherDisplay:10.37,2013-07-06 22:05:00,
2013-07-06 18:11:00,86.5,72.9,29.49,SW,234,0.0,0.0,64,0.00,CLR,,0.01,WeatherDisplay:10.37,2013-07-06 22:11:00,
2013-07-06 18:16:00,86.5,72.4,29.49,SW,234,0.0,0.0,63,0.00,CLR,,0.01,WeatherDisplay:10.37,2013-07-06 22:16:00,
2013-07-06 18:21:00,86.5,71.9,29.49,SW,234,1.1,0.0,62,0.00,CLR,,0.01,WeatherDisplay:10.37,2013-07-06 22:21:00,
2013-07-06 18:27:00,86.7,72.6,29.49,SW,234,0.0,0.0,63,0.00,CLR,,0.01,WeatherDisplay:10.37,2013-07-06 22:27:00,
2013-07-06 18:32:00,86.5,71.9,29.49,SW,234,0.0,0.0,62,0.00,CLR,,0.01,WeatherDisplay:10.37,2013-07-06 22:32:00,
2013-07-06 18:37:00,86.7,73.1,29.48,SW,234,0.0,0.0,64,0.00,CLR,,0.01,WeatherDisplay:10.37,2013-07-06 22:37:00,
2013-07-06 18:42:00,86.5,72.9,29.48,SW,234,0.0,0.0,64,0.00,CLR,,0.01,WeatherDisplay:10.37,2013-07-06 22:42:00,
2013-07-06 18:48:00,85.7,72.1,29.48,ENE,69,0.0,0.0,64,0.00,CLR,,0.01,WeatherDisplay:10.37,2013-07-06 22:48:00,
2013-07-06 18:53:00,85.3,71.7,29.48,ENE,76,0.0,0.0,64,0.00,CLR,,0.01,WeatherDisplay:10.37,2013-07-06 22:53:00,
2013-07-06 18:58:00,84.9,72.3,29.48,ENE,76,0.0,0.0,66,0.00,CLR,,0.01,WeatherDisplay:10.37,2013-07-06 22:58:00,
2013-07-06 19:03:00,84.7,72.5,29.48,NNW,340,0.0,0.0,67,0.00,CLR,,0.01,WeatherDisplay:10.37,2013-07-06 23:03:00,
2013-07-06 19:08:00,84.9,72.3,29.48,NNW,340,0.0,0.0,66,0.00,CLR,,0.01,WeatherDisplay:10.37,2013-07-06 23:08:00,
2013-07-06 19:14:00,85.1,72.5,29.48,North,0,0.0,0.0,66,0.00,CLR,,0.01,WeatherDisplay:10.37,2013-07-06 23:14:00,
2013-07-06 19:19:00,85.3,72.2,29.48,WNW,298,0.0,0.0,65,0.00,CLR,,0.01,WeatherDisplay:10.37,2013-07-06 23:19:00,
2013-07-06 19:25:00,85.3,72.2,29.48,NNW,343,0.0,0.0,65,0.00,CLR,,0.01,WeatherDisplay:10.37,2013-07-06 23:25:00,
2013-07-06 19:30:00,84.5,72.3,29.48,NNW,343,0.0,0.0,67,0.00,CLR,,0.01,WeatherDisplay:10.37,2013-07-06 23:30:00,
2013-07-06 19:37:00,84.3,72.1,29.49,NNW,343,0.0,0.0,67,0.00,CLR,,0.01,WeatherDisplay:10.37,2013-07-06 23:37:00,
2013-07-06 19:42:00,83.8,71.7,29.49,North,0,0.0,0.0,67,0.00,CLR,,0.01,WeatherDisplay:10.37,2013-07-06 23:42:00,
2013-07-06 19:47:00,83.4,71.7,29.49,North,0,0.0,0.0,68,0.00,CLR,,0.01,WeatherDisplay:10.37,2013-07-06 23:47:00,
2013-07-06 19:53:00,82.8,71.6,29.49,North,0,0.0,0.0,69,0.00,CLR,,0.01,WeatherDisplay:10.37,2013-07-06 23:53:00,
2013-07-06 19:58:00,82.6,71.8,29.49,North,0,0.0,0.0,70,0.00,CLR,,0.01,WeatherDisplay:10.37,2013-07-06 23:58:00,
2013-07-06 20:03:00,82.2,71.9,29.49,North,0,0.0,0.0,71,0.00,CLR,,0.01,WeatherDisplay:10.37,2013-07-07 00:03:00,
2013-07-06 20:10:00,81.8,72.3,29.49,North,0,0.0,0.0,73,0.00,CLR,,0.01,WeatherDisplay:10.37,2013-07-07 00:10:00,
2013-07-06 20:15:00,81.4,71.9,29.49,North,0,0.0,0.0,73,0.00,CLR,,0.01,WeatherDisplay:10.37,2013-07-07 00:15:00,
2013-07-06 20:20:00,81.1,72.0,29.49,North,0,0.0,0.0,74,0.00,CLR,,0.01,WeatherDisplay:10.37,2013-07-07 00:20:00,
2013-07-06 20:25:00,80.7,72.0,29.49,North,0,0.0,0.0,75,0.00,CLR,,0.01,WeatherDisplay:10.37,2013-07-07 00:25:00,
2013-07-06 20:31:00,80.1,72.2,29.49,North,0,0.0,0.0,77,0.00,CLR,,0.01,WeatherDisplay:10.37,2013-07-07 00:31:00,
2013-07-06 20:37:00,79.8,71.9,29.50,North,0,0.0,0.0,77,0.00,CLR,,0.01,WeatherDisplay:10.37,2013-07-07 00:37:00,
2013-07-06 20:42:00,79.6,72.1,29.50,North,0,0.0,0.0,78,0.00,CLR,,0.01,WeatherDisplay:10.37,2013-07-07 00:42:00,
2013-07-06 20:49:00,79.2,72.1,29.50,North,0,0.0,0.0,79,0.00,CLR,,0.01,WeatherDisplay:10.37,2013-07-07 00:49:00,
2013-07-06 20:54:00,79.0,71.9,29.50,North,0,0.0,0.0,79,0.00,CLR,,0.01,WeatherDisplay:10.37,2013-07-07 00:54:00,
2013-07-06 20:59:00,78.8,72.1,29.50,North,0,0.0,0.0,80,0.00,CLR,,0.01,WeatherDisplay:10.37,2013-07-07 00:59:00,
2013-07-06 21:04:00,78.6,71.9,29.50,North,0,0.0,0.0,80,0.00,CLR,,0.01,WeatherDisplay:10.37,2013-07-07 01:04:00,
2013-07-06 21:10:00,78.5,72.2,29.50,North,0,0.0,0.0,81,0.00,CLR,,0.01,WeatherDisplay:10.37,2013-07-07 01:10:00,
2013-07-06 21:15:00,78.3,72.0,29.50,WNW,296,0.0,0.0,81,0.00,CLR,,0.01,WeatherDisplay:10.37,2013-07-07 01:15:00,
2013-07-06 21:20:00,78.3,72.0,29.50,WNW,296,0.0,0.0,81,0.00,CLR,,0.01,WeatherDisplay:10.37,2013-07-07 01:20:00,
2013-07-06 21:26:00,78.1,72.2,29.51,WNW,296,0.0,0.0,82,0.00,CLR,,0.01,WeatherDisplay:10.37,2013-07-07 01:26:00,
2013-07-06 21:32:00,78.1,71.8,29.51,WNW,296,0.0,0.0,81,0.00,CLR,,0.01,WeatherDisplay:10.37,2013-07-07 01:32:00,
2013-07-06 21:37:00,78.1,71.8,29.52,WNW,296,0.0,0.0,81,0.00,CLR,,0.01,WeatherDisplay:10.37,2013-07-07 01:37:00,
2013-07-06 21:42:00,78.1,71.8,29.52,WNW,296,0.0,0.0,81,0.00,CLR,,0.01,WeatherDisplay:10.37,2013-07-07 01:42:00,
2013-07-06 21:48:00,78.1,71.8,29.52,WNW,285,0.0,0.0,81,0.00,CLR,,0.01,WeatherDisplay:10.37,2013-07-07 01:48:00,
2013-07-06 21:55:00,78.1,71.8,29.53,WNW,285,0.0,0.0,81,0.00,CLR,,0.01,WeatherDisplay:10.37,2013-07-07 01:55:00,
2013-07-06 22:00:00,78.1,71.4,29.53,WNW,285,0.0,0.0,80,0.00,CLR,,0.01,WeatherDisplay:10.37,2013-07-07 02:00:00,
2013-07-06 22:06:00,78.1,71.4,29.53,West,277,0.0,0.0,80,0.01,RA,,0.02,WeatherDisplay:10.37,2013-07-07 02:06:00,
2013-07-06 22:11:00,77.9,71.6,29.53,West,277,0.0,0.2,81,0.01,RA,,0.02,WeatherDisplay:10.37,2013-07-07 02:11:00,
2013-07-06 22:16:00,77.9,71.6,29.53,West,275,1.1,1.1,81,0.01,CLR,,0.02,WeatherDisplay:10.37,2013-07-07 02:16:00,
2013-07-06 22:22:00,77.7,71.4,29.54,WSW,257,4.0,4.0,81,0.01,CLR,,0.02,WeatherDisplay:10.37,2013-07-07 02:22:00,
2013-07-06 22:28:00,77.7,71.4,29.54,SW,223,8.1,8.1,81,0.01,CLR,,0.02,WeatherDisplay:10.37,2013-07-07 02:28:00,
2013-07-06 22:33:00,77.7,71.0,29.54,WSW,254,3.0,3.0,80,0.01,CLR,,0.02,WeatherDisplay:10.37,2013-07-07 02:33:00,
2013-07-06 22:39:00,77.7,71.0,29.54,SW,233,2.3,2.3,80,0.01,CLR,,0.02,WeatherDisplay:10.37,2013-07-07 02:39:00,
2013-07-06 22:44:00,77.7,71.0,29.54,SW,234,0.0,0.9,80,0.01,CLR,,0.02,WeatherDisplay:10.37,2013-07-07 02:44:00,
2013-07-06 22:49:00,77.6,70.9,29.54,SSW,205,1.1,1.1,80,0.01,CLR,,0.02,WeatherDisplay:10.37,2013-07-07 02:49:00,
2013-07-06 22:55:00,77.4,70.4,29.55,WSW,250,3.5,3.5,79,0.01,CLR,,0.02,WeatherDisplay:10.37,2013-07-07 02:55:00,
2013-07-06 23:00:00,77.4,70.4,29.55,WSW,246,0.0,0.0,79,0.01,CLR,,0.02,WeatherDisplay:10.37,2013-07-07 03:00:00,
2013-07-06 23:05:00,77.2,70.2,29.55,WSW,239,5.8,0.0,79,0.00,CLR,,0.02,WeatherDisplay:10.37,2013-07-07 03:05:00,
2013-07-06 23:11:00,77.0,70.0,29.55,SW,234,0.0,0.0,79,0.00,CLR,,0.02,WeatherDisplay:10.37,2013-07-07 03:11:00,
2013-07-06 23:16:00,77.0,70.0,29.55,WSW,244,4.6,0.0,79,0.00,CLR,,0.02,WeatherDisplay:10.37,2013-07-07 03:16:00,
2013-07-06 23:21:00,76.8,69.8,29.54,SW,216,5.8,5.8,79,0.00,CLR,,0.02,WeatherDisplay:10.37,2013-07-07 03:21:00,
2013-07-06 23:27:00,76.7,69.7,29.54,WSW,240,0.0,0.3,79,0.00,CLR,,0.02,WeatherDisplay:10.37,2013-07-07 03:27:00,
2013-07-06 23:33:00,76.7,69.7,29.54,WSW,237,0.0,0.0,79,0.00,CLR,,0.02,WeatherDisplay:10.37,2013-07-07 03:33:00,
2013-07-06 23:39:00,76.3,69.3,29.54,WSW,244,1.1,1.1,79,0.00,CLR,,0.02,WeatherDisplay:10.37,2013-07-07 03:39:00,
2013-07-06 23:44:00,76.1,69.5,29.54,South,188,0.0,0.0,80,0.00,CLR,,0.02,WeatherDisplay:10.37,2013-07-07 03:44:00,
2013-07-06 23:49:00,76.0,69.4,29.54,WSW,251,0.0,0.0,80,0.00,CLR,,0.02,WeatherDisplay:10.37,2013-07-07 03:49:00,
2013-07-06 23:54:00,75.8,69.2,29.54,WSW,253,1.1,0.0,80,0.00,CLR,,0.02,WeatherDisplay:10.37,2013-07-07 03:54:00,